Airport ID:KCCB
Update Time (UTC):16/10/2019 18:03
Wind Speed (Knots):1
Wind Direction (Magnetic):260
Temperature (°C):28.5
Dew Point (°C):0.8
Humidity (%):16.5
Altimeter (inHg):29.97
Density Altitude (Feet):03400
Visibility (Miles):10
Clouds (Hundreds of feet):CLR
Present Weather:
METAR:METAR KCCB 161800Z AUTO 00000KT 10SM CLR 28/01 A2997 RMK AO2

The data displayed is for advisory purposes only and is not to be used for flight planning or operations.

This page is not automatically refreshed. Reload the page to see current data.